CheckWX is a tool to help pilots better visualize weather data.  It is not intended as a substitute for an official pre-flight weather briefing.

04:45:19 UTC

KHLX METAR
Twin County Airport
Galax Hillsville, Virginia, USA
Current

30 mins ago

KHLX 270415Z AUTO 31007KT 10SM CLR 21/19 A3027 RMK AO2 T02140186
Observed
Jun-27 @ 04:15 UTC
Wind
  • 310° at 7 KTS
Visibility
10 SM
Flight Rules
VFR
Cloud Levels
  • Clear skies
Temperature
21°C / 70°F
Dewpoint
19°C / 66°F
Humidity
88%
Altimeter
30.27" Hg
Pressure
1025.02 hPa
Previous

1 hour ago

KHLX 270335Z AUTO 31007KT 10SM CLR 22/19 A3027 RMK AO2 T02160190
Observed
Jun-27 @ 03:35 UTC
Wind
  • 310° at 7 KTS
Visibility
10 SM
Flight Rules
VFR
Cloud Levels
  • Clear skies
Temperature
22°C / 72°F
Dewpoint
19°C / 66°F
Humidity
83%
Altimeter
30.27" Hg
Pressure
1025.02 hPa
Previous

2 hours ago

KHLX 270315Z AUTO 30005KT 10SM CLR 21/19 A3026 RMK AO2 T02110191
Observed
Jun-27 @ 03:15 UTC
Wind
  • 300° at 5 KTS
Visibility
10 SM
Flight Rules
VFR
Cloud Levels
  • Clear skies
Temperature
21°C / 70°F
Dewpoint
19°C / 66°F
Humidity
88%
Altimeter
30.26" Hg
Pressure
1024.72 hPa